Emmenbrucke, Switzerland
Current Conditions -  °F | °C
As of 6:50 AM on Monday 22 Dec 2014 (Local Time) from LSME Reporting Station
Clear Clear  
Wind Chill: 27°   Ceiling: Unl
Heat Index: 27°   Visibility: 6mi
Dew Point: 25°   Wind: 0mph
Humidity: 93%   Direction: NA
Pressure: 30.48"   Gusts: NA
Location:  47.07°N, 8.27°E
Report Text: LSME 220550Z AUTO 00000KT 9999NDV NCD M03/M04 Q1032 RMK BLU
Loading
Personal Weather Stations






























Interactive Weather Map New forecast layout! Learn more

10-Day Weather Forecast

Advertisements
Track Severe Weather on mobile